Latest Weather Observations for Halls Creek

IDD60801

Issued at 4:01 pm CST Thursday 28 July 2016 (issued every 30 minutes, with the page automatically refreshed every 10 minutes)

About weather observations | Map of weather stations | Latest weather observations for NT | Other Formats
Station Details ID: 002012 Name: HALLS CREEK AIRPORT Lat: -18.23 Lon: 127.66 Height: 422.0 m
Data from the previous 72 hours. | See also: Recent months at Halls Creek
Date/Time
CST
Temp
°C
App
Temp
°C
Dew
Point
°C
Rel
Hum
%
Delta-T
°C
Wind Press
QNH
hPa
Press
MSL
hPa
Rain since
9am
mm
Dir  Spd
km/h
Gust
km/h
Spd
kts
Gust
kts
28/03:30pm 25.9 20.8 -9.1 9 14.0 E 11 30 6 16 1018.3 - 0.0
28/03:00pm 25.4 19.5 -9.6 9 13.8 ESE 15 32 8 17 1018.4 - 0.0
28/02:30pm 24.9 19.5 -8.0 10 13.3 ESE 13 26 7 14 1019.0 - 0.0
28/02:00pm 24.4 19.5 -7.2 11 12.9 E 11 24 6 13 1019.5 - 0.0
28/01:30pm 23.9 18.5 -8.3 11 12.8 ESE 13 22 7 12 1020.2 1018.8 0.0
28/01:00pm 22.9 17.5 -8.5 11 12.3 E 13 28 7 15 1021.0 - 0.0
28/12:30pm 21.8 16.6 -6.5 14 11.4 E 13 22 7 12 1021.7 - 0.0
28/12:00pm 21.0 16.2 -6.0 16 10.9 E 11 22 6 12 1022.4 - 0.0
28/11:30am 19.6 13.9 -4.1 20 9.8 E 17 33 9 18 1023.0 - 0.0
28/11:00am 18.7 12.9 -4.9 19 9.5 E 17 35 9 19 1023.5 - 0.0
28/10:30am 19.3 14.2 -4.9 19 9.8 E 13 26 7 14 1023.7 1022.3 0.0
28/10:00am 18.2 12.8 -4.6 21 9.2 E 15 33 8 18 1023.6 - 0.0
28/09:30am 17.1 10.8 -5.8 20 8.9 E 19 37 10 20 1023.8 - 0.0
28/09:00am 16.8 11.6 -6.5 19 8.9 E 13 24 7 13 1023.6 - 0.0
28/08:30am 15.8 10.9 -6.9 20 8.5 E 11 20 6 11 1023.2 - 0.0
28/08:00am 14.8 9.9 -6.7 22 8.0 ESE 11 22 6 12 1023.0 - 0.0
28/07:30am 14.2 9.3 -7.1 22 7.8 ESE 11 20 6 11 1022.8 1021.4 0.0
28/07:00am 14.3 9.7 -7.4 21 7.9 E 9 17 5 9 1022.3 - 0.0
28/06:30am 13.2 9.2 -5.9 26 7.1 ESE 7 11 4 6 1021.9 - 0.0
28/06:00am 12.8 9.1 -4.5 29 6.6 ESE 6 9 3 5 1021.7 - 0.0
28/05:30am 13.4 9.7 -5.0 27 7.0 ESE 6 9 3 5 1021.6 - 0.0
28/05:00am 14.6 10.5 -6.6 22 7.9 ESE 7 13 4 7 1021.4 - 0.0
28/04:30am 15.1 11.2 -6.5 22 8.1 E 6 15 3 8 1021.3 1019.9 0.0
28/04:00am 14.2 10.9 -4.7 26 7.3 E 4 7 2 4 1021.3 - 0.0
28/03:30am 14.3 11.1 -3.6 29 7.1 E 4 6 2 3 1021.2 - 0.0
28/03:00am 15.6 11.8 -5.3 23 8.1 ESE 6 9 3 5 1021.1 - 0.0
28/02:30am 16.7 12.7 -7.2 19 9.0 E 6 13 3 7 1021.2 - 0.0
28/02:00am 17.0 13.1 -6.5 19 9.0 ENE 6 13 3 7 1021.2 - 0.0
28/01:30am 17.5 13.5 -7.3 18 9.4 E 6 13 3 7 1021.2 1019.8 0.0
28/01:00am 17.1 13.2 -6.2 20 9.0 ESE 6 9 3 5 1021.1 - 0.0
28/12:30am 17.2 13.2 -6.0 20 9.0 ESE 7 15 4 8 1021.2 - 0.0
28/12:00am 18.2 13.6 -8.2 16 9.9 ESE 9 19 5 10 1021.3 - 0.0
 
Date/Time
CST
Temp
°C
App
Temp
°C
Dew
Point
°C
Rel
Hum
%
Delta-T
°C
Wind Press
QNH
hPa
Press
MSL
hPa
Rain since
9am
mm
Dir  Spd
km/h
Gust
km/h
Spd
kts
Gust
kts
27/11:30pm 18.7 14.0 -8.6 15 10.2 ESE 9 17 5 9 1021.2 - 0.0
27/11:00pm 19.3 14.6 -9.2 13 10.6 ESE 9 17 5 9 1021.2 - 0.0
27/10:30pm 19.7 15.1 -8.0 14 10.6 ESE 9 17 5 9 1021.0 1019.6 0.0
27/10:00pm 20.3 15.7 -8.0 14 10.9 ESE 9 19 5 10 1021.0 - 0.0
27/09:30pm 20.6 16.1 -6.6 15 10.8 ESE 9 15 5 8 1020.9 - 0.0
27/09:00pm 21.0 16.7 -5.0 17 10.7 ESE 9 17 5 9 1020.6 - 0.0
27/08:30pm 21.8 17.6 -3.9 17 10.9 ESE 9 17 5 9 1020.3 - 0.0
27/08:00pm 22.2 18.3 -1.2 21 10.5 ESE 9 20 5 11 1019.9 - 0.0
27/07:30pm 23.0 18.9 -0.3 21 10.7 ESE 11 19 6 10 1019.6 1018.2 0.0
27/07:00pm 23.6 19.6 0.2 21 10.9 ESE 11 20 6 11 1019.3 - 0.0
27/06:30pm 24.7 20.0 0.6 20 11.4 SE 15 32 8 17 1019.1 - 0.0
27/06:00pm 25.6 20.6 1.4 20 11.7 ESE 17 33 9 18 1018.8 - 0.0
27/05:30pm 26.2 21.3 2.3 21 11.8 ESE 17 30 9 16 1018.3 - 0.0
27/05:00pm 26.8 21.5 2.1 20 12.2 ESE 19 37 10 20 1017.9 - 0.0
27/04:30pm 27.1 22.3 2.4 20 12.3 ESE 17 33 9 18 1017.8 1016.3 0.0
27/04:00pm 27.2 22.3 2.2 20 12.4 ESE 17 30 9 16 1017.9 - 0.0
27/03:30pm 26.9 22.0 1.9 19 12.3 ESE 17 37 9 20 1018.0 - 0.0
27/03:00pm 26.9 21.9 1.6 19 12.4 ESE 17 35 9 19 1018.2 - 0.0
27/02:30pm 26.8 22.2 1.4 19 12.4 E 15 32 8 17 1018.4 - 0.0
27/02:00pm 27.0 22.6 2.5 20 12.2 E 15 32 8 17 1018.8 - 0.0
27/01:30pm 26.5 22.0 2.2 20 12.0 ESE 15 28 8 15 1019.2 1017.8 0.0
27/01:00pm 25.5 20.7 2.6 22 11.3 ESE 17 35 9 19 1019.6 - 0.0
27/12:30pm 24.9 20.1 2.5 23 11.0 E 17 33 9 18 1020.2 - 0.0
27/12:00pm 24.4 19.4 1.1 21 11.1 E 17 33 9 18 1020.6 - 0.0
27/11:30am 23.8 19.2 1.3 22 10.7 E 15 26 8 14 1020.9 - 0.0
27/11:00am 22.5 16.9 1.3 24 10.0 ESE 20 35 11 19 1021.2 - 0.0
27/10:30am 21.5 16.1 1.1 26 9.5 E 19 33 10 18 1021.5 1020.1 0.0
27/10:00am 21.2 16.6 1.6 27 9.2 E 15 30 8 16 1021.4 - 0.0
27/09:30am 20.3 16.0 1.3 28 8.8 E 13 32 7 17 1021.2 - 0.0
27/09:00am 19.3 14.8 1.9 31 8.1 E 15 28 8 15 1021.0 - 0.0
27/08:30am 18.6 14.9 2.6 34 7.5 ESE 11 24 6 13 1020.8 - 0.0
27/08:00am 17.5 14.3 3.3 38 6.7 ESE 9 19 5 10 1020.5 - 0.0
27/07:30am 17.5 13.9 3.0 38 6.8 ESE 11 19 6 10 1020.2 1018.8 0.0
27/07:00am 17.8 14.2 2.9 37 7.0 ESE 11 20 6 11 1019.8 - 0.0
27/06:30am 18.2 15.0 2.9 36 7.2 E 9 20 5 11 1019.5 - 0.0
27/06:00am 18.6 14.6 3.0 35 7.4 E 13 20 7 11 1019.1 - 0.0
27/05:30am 18.4 15.9 3.6 37 7.1 ESE 6 13 3 7 1019.0 - 0.0
27/05:00am 19.2 16.6 3.3 35 7.6 E 6 13 3 7 1018.5 - 0.0
27/04:30am 19.8 16.2 3.1 33 8.0 ESE 11 20 6 11 1018.5 1017.1 0.0
27/04:00am 20.1 16.2 3.3 33 8.1 ESE 13 22 7 12 1018.2 - 0.0
27/03:30am 20.3 16.7 3.0 32 8.3 ESE 11 20 6 11 1018.1 - 0.0
27/03:00am 20.4 16.8 3.2 32 8.3 ESE 11 20 6 11 1018.1 - 0.0
27/02:30am 20.9 17.3 3.1 31 8.6 ESE 11 24 6 13 1018.2 - 0.0
27/02:00am 21.4 17.8 3.0 29 8.9 ESE 11 20 6 11 1018.2 - 0.0
27/01:30am 21.9 18.7 2.9 28 9.2 ESE 9 22 5 12 1018.1 1016.7 0.0
27/01:00am 22.3 18.3 3.0 28 9.4 ESE 13 26 7 14 1017.9 - 0.0
27/12:30am 22.7 19.1 2.7 27 9.7 ESE 11 22 6 12 1017.8 - 0.0
27/12:00am 22.4 19.4 4.1 30 9.1 ESE 9 19 5 10 1018.0 - 0.0
 
Date/Time
CST
Temp
°C
App
Temp
°C
Dew
Point
°C
Rel
Hum
%
Delta-T
°C
Wind Press
QNH
hPa
Press
MSL
hPa
Rain since
9am
mm
Dir  Spd
km/h
Gust
km/h
Spd
kts
Gust
kts
26/11:30pm 23.2 19.5 4.3 29 9.5 ESE 13 24 7 13 1018.0 - 0.0
26/11:00pm 21.7 20.1 6.4 37 7.9 SE 4 7 2 4 1017.8 - 0.0
26/10:30pm 22.0 20.6 7.4 39 7.7 ESE 4 7 2 4 1017.4 1016.0 0.0
26/10:00pm 23.1 21.0 5.9 33 8.9 ESE 6 9 3 5 1017.3 - 0.0
26/09:30pm 23.6 21.4 5.5 31 9.3 ESE 6 9 3 5 1017.3 - 0.0
26/09:00pm 22.7 21.5 7.9 38 7.9 SE 4 6 2 3 1017.1 - 0.0
26/08:30pm 22.8 21.5 7.8 38 8.0 SE 4 6 2 3 1016.8 - 0.0
26/08:00pm 23.6 22.4 8.0 36 8.4 S 4 4 2 2 1016.4 - 0.0
26/07:30pm 24.9 24.0 7.9 33 9.2 SSE 2 4 1 2 1016.0 1014.6 0.0
26/07:00pm 26.0 24.5 7.0 29 10.2 SSE 4 7 2 4 1015.6 - 0.0
26/06:30pm 27.9 25.3 4.0 21 12.3 SE 7 15 4 8 1015.2 - 0.0
26/06:00pm 29.1 26.0 3.4 19 13.2 SE 9 19 5 10 1014.9 - 0.0
26/05:30pm 29.6 26.9 3.7 19 13.4 ESE 7 15 4 8 1014.7 - 0.0
26/05:00pm 29.9 27.1 3.3 18 13.7 SE 7 20 4 11 1014.4 - 0.0
26/04:30pm 31.1 28.3 3.4 17 14.4 SSE 7 17 4 9 1014.6 1013.2 0.0
26/04:00pm 30.7 28.1 3.2 17 14.2 SSE 6 15 3 8 1014.8 - 0.0
26/03:30pm 30.6 27.9 3.7 18 14.0 SE 7 17 4 9 1014.9 - 0.0
26/03:00pm 30.1 27.6 3.7 18 13.7 E 6 17 3 9 1015.2 - 0.0
26/02:30pm 30.3 27.5 3.4 18 13.9 ESE 7 15 4 8 1015.3 - 0.0
26/02:00pm 29.8 27.2 3.4 18 13.6 NE 6 13 3 7 1015.7 - 0.0
26/01:30pm 29.6 26.5 3.4 19 13.5 E 9 17 5 9 1016.1 1014.7 0.0
26/01:00pm 28.4 25.9 3.6 20 12.7 NE 6 15 3 8 1016.6 - 0.0
26/12:30pm 28.1 25.1 4.1 21 12.4 NE 9 19 5 10 1017.0 - 0.0
26/12:00pm 27.3 24.4 4.8 23 11.7 NE 9 24 5 13 1017.6 - 0.0
26/11:30am 26.5 23.2 4.6 24 11.3 NE 11 24 6 13 1018.0 - 0.0
26/11:00am 25.7 22.9 5.0 26 10.7 NE 9 20 5 11 1018.2 - 0.0
26/10:30am 24.9 22.0 4.5 26 10.4 ENE 9 17 5 9 1018.4 1017.0 0.0
26/10:00am 23.8 20.5 4.7 29 9.7 ENE 11 20 6 11 1018.2 - 0.0
26/09:30am 22.5 20.9 6.3 35 8.4 ENE 4 9 2 5 1018.0 - 0.0
26/09:00am 20.4 18.4 6.3 40 7.2 ENE 6 9 3 5 1017.8 - 0.0
26/08:30am 19.2 17.9 6.2 42 6.6 ENE 2 7 1 4 1017.8 - 0.0
26/08:00am 17.5 16.1 5.6 45 5.9 NE 2 4 1 2 1017.4 - 0.0
26/07:30am 16.6 15.3 6.2 50 5.2 NE 2 4 1 2 1016.9 1015.5 0.0
26/07:00am 17.3 15.2 5.6 46 5.8 NE 6 7 3 4 1016.6 - 0.0
26/06:30am 16.9 15.7 6.6 50 5.2 ENE 2 6 1 3 1016.6 - 0.0
26/06:00am 17.0 15.7 6.2 49 5.4 E 2 4 1 2 1016.5 - 0.0
26/05:30am 16.4 15.0 7.1 54 4.7 E 4 4 2 2 1016.4 - 0.0
26/05:00am 16.7 15.1 6.5 51 5.1 ESE 4 4 2 2 1016.3 - 0.0
26/04:30am 16.5 15.4 6.8 52 4.9 ESE 2 4 1 2 1016.2 1014.8 0.0
26/04:00am 16.6 15.6 7.4 54 4.7 ESE 2 4 1 2 1016.1 - 0.0
26/03:30am 17.2 15.7 7.0 51 5.2 E 4 6 2 3 1016.0 - 0.0
26/03:00am 17.6 16.5 7.0 50 5.4 ESE 2 6 1 3 1016.2 - 0.0
26/02:30am 18.3 17.0 6.2 45 6.1 E 2 4 1 2 1016.3 - 0.0
26/02:00am 18.6 17.6 5.8 43 6.4 CALM 0 0 0 0 1016.6 - 0.0
26/01:30am 19.4 18.2 6.5 43 6.6 E 2 4 1 2 1016.6 1015.2 0.0
26/01:00am 19.9 18.6 5.9 40 7.1 ENE 2 6 1 3 1016.6 - 0.0
26/12:30am 20.0 18.6 5.5 38 7.3 NE 2 4 1 2 1016.6 - 0.0
26/12:00am 20.3 19.0 5.9 39 7.3 SSE 2 4 1 2 1016.6 - 0.0
 
Date/Time
CST
Temp
°C
App
Temp
°C
Dew
Point
°C
Rel
Hum
%
Delta-T
°C
Wind Press
QNH
hPa
Press
MSL
hPa
Rain since
9am
mm
Dir  Spd
km/h
Gust
km/h
Spd
kts
Gust
kts
25/11:30pm 20.7 19.7 5.7 37 7.6 CALM 0 2 0 1 1016.7 - 0.0
25/11:00pm 21.2 19.7 5.1 35 8.1 SSE 2 4 1 2 1016.9 - 0.0
25/10:30pm 21.8 20.2 4.3 32 8.7 ESE 2 4 1 2 1016.8 1015.4 0.0
25/10:00pm 22.4 21.0 5.6 33 8.6 SE 2 4 1 2 1016.6 - 0.0
25/09:30pm 22.3 20.6 6.0 34 8.4 SE 4 4 2 2 1016.6 - 0.0
25/09:00pm 22.6 20.8 5.6 33 8.7 ESE 4 6 2 3 1016.5 - 0.0
25/08:30pm 22.5 20.8 6.0 34 8.5 SE 4 4 2 2 1016.2 - 0.0
25/08:00pm 23.2 21.8 7.1 35 8.5 SSE 4 6 2 3 1015.8 - 0.0
25/07:30pm 24.1 22.7 7.2 33 9.0 SSE 4 6 2 3 1015.5 1014.0 0.0
25/07:00pm 25.6 23.8 5.4 27 10.5 SSE 4 7 2 4 1015.1 - 0.0
25/06:30pm 27.7 25.4 4.6 23 12.0 ESE 6 11 3 6 1014.8 - 0.0
25/06:00pm 29.6 26.1 1.2 16 14.1 ESE 9 15 5 8 1014.6 - 0.0

Other Formats:

Comma delimited format used in spreadsheet applications
http://www.bom.gov.au/fwo/IDD60801/IDD60801.94212.axf

JavaScript Object Notation format (JSON) in row-major order
http://www.bom.gov.au/fwo/IDD60801/IDD60801.94212.json